createdAt,value
2023-02-06T00:00:06.170Z,78.49
2023-02-06T00:02:32.530Z,78.41
2023-02-06T00:04:58.969Z,78.20
2023-02-06T00:07:25.696Z,79.33
2023-02-06T00:09:52.101Z,79.29
2023-02-06T00:12:19.278Z,79.28
2023-02-06T00:14:46.238Z,78.90
2023-02-06T00:17:12.893Z,79.08
2023-02-06T00:19:39.238Z,79.27
2023-02-06T00:22:05.630Z,79.20
2023-02-06T00:24:32.007Z,79.05
2023-02-06T00:26:58.688Z,78.92
2023-02-06T00:29:25.034Z,78.76
2023-02-06T00:31:51.633Z,78.70
2023-02-06T00:34:18.985Z,78.36
2023-02-06T00:36:50.235Z,78.08
2023-02-06T00:39:18.417Z,77.82
2023-02-06T00:41:44.842Z,78.46
2023-02-06T00:44:11.877Z,78.27
2023-02-06T00:46:40.758Z,77.92
2023-02-06T00:49:07.456Z,77.67
2023-02-06T00:51:36.268Z,77.57
2023-02-06T00:54:05.242Z,77.41
2023-02-06T00:56:31.943Z,77.10
2023-02-06T00:58:58.433Z,76.87
2023-02-06T01:01:24.828Z,77.08
2023-02-06T01:03:51.167Z,77.00
2023-02-06T01:06:20.699Z,76.32
2023-02-06T01:08:52.381Z,77.29
2023-02-06T01:11:23.460Z,77.09
2023-02-06T01:13:49.880Z,76.48
2023-02-06T01:16:20.800Z,76.29
2023-02-06T01:18:50.218Z,75.18
2023-02-06T01:21:17.202Z,74.67
2023-02-06T01:23:43.884Z,74.97
2023-02-06T01:26:13.422Z,75.19
2023-02-06T01:28:40.341Z,75.83
2023-02-06T01:31:07.503Z,75.61
2023-02-06T01:33:34.516Z,76.11
2023-02-06T01:36:02.539Z,76.15
2023-02-06T01:38:29.187Z,76.35
2023-02-06T01:40:55.626Z,76.47
2023-02-06T01:43:22.291Z,76.77
2023-02-06T01:45:53.381Z,76.43
2023-02-06T01:48:20.019Z,76.04
2023-02-06T01:50:46.927Z,75.32
2023-02-06T01:53:25.156Z,74.61
2023-02-06T01:55:51.507Z,74.45
2023-02-06T01:58:18.280Z,74.35
2023-02-06T02:00:44.913Z,74.98
2023-02-06T02:03:11.316Z,74.85
2023-02-06T02:05:38.356Z,74.66
2023-02-06T02:08:04.805Z,74.00
2023-02-06T02:10:31.368Z,74.21
2023-02-06T02:12:58.079Z,73.46
2023-02-06T02:15:24.447Z,73.76
2023-02-06T02:17:50.851Z,73.40
2023-02-06T02:20:18.441Z,73.40
2023-02-06T02:22:45.361Z,73.88
2023-02-06T02:25:11.959Z,74.11
2023-02-06T02:27:38.455Z,74.49
2023-02-06T02:30:05.003Z,75.08
2023-02-06T02:32:40.146Z,75.80
2023-02-06T02:35:06.898Z,76.11
2023-02-06T02:37:33.843Z,76.40
2023-02-06T02:40:00.444Z,76.06
2023-02-06T02:42:26.837Z,76.55
2023-02-06T02:44:55.478Z,76.17
2023-02-06T02:47:21.977Z,75.99
2023-02-06T02:49:50.871Z,75.98
2023-02-06T02:52:17.261Z,76.09
2023-02-06T02:54:46.277Z,75.41
2023-02-06T02:57:12.720Z,75.16
2023-02-06T02:59:41.697Z,74.60
2023-02-06T03:02:09.109Z,75.19
2023-02-06T03:04:36.924Z,75.46
2023-02-06T03:07:03.423Z,75.84
2023-02-06T03:09:29.874Z,75.85
2023-02-06T03:11:57.099Z,75.78
2023-02-06T03:14:23.462Z,75.67
2023-02-06T03:16:50.232Z,75.68
2023-02-06T03:19:19.069Z,75.33
2023-02-06T03:21:46.179Z,75.61
2023-02-06T03:24:13.659Z,75.69
2023-02-06T03:26:41.213Z,75.56
2023-02-06T03:29:08.645Z,75.19
2023-02-06T03:31:35.053Z,74.56
2023-02-06T03:34:01.544Z,74.60
2023-02-06T03:36:30.387Z,74.94
2023-02-06T03:38:56.766Z,74.65
2023-02-06T03:41:30.162Z,74.88
2023-02-06T03:43:56.578Z,74.59
2023-02-06T03:46:23.027Z,74.58
2023-02-06T03:48:49.411Z,75.06
2023-02-06T03:51:15.912Z,75.19
2023-02-06T03:53:42.486Z,75.59
2023-02-06T03:56:10.095Z,76.06
2023-02-06T03:58:43.817Z,76.85
2023-02-06T04:01:10.435Z,76.41
2023-02-06T04:03:41.959Z,75.90
2023-02-06T04:06:08.430Z,75.80
2023-02-06T04:08:35.681Z,75.29
2023-02-06T04:11:02.126Z,75.60
2023-02-06T04:13:32.604Z,75.22
2023-02-06T04:15:59.176Z,75.47
2023-02-06T04:18:26.231Z,75.45
2023-02-06T04:20:52.709Z,76.07
2023-02-06T04:23:19.365Z,76.50
2023-02-06T04:25:47.792Z,76.13
2023-02-06T04:28:14.680Z,76.68
2023-02-06T04:30:41.234Z,76.46
2023-02-06T04:33:11.902Z,76.33
2023-02-06T04:35:38.459Z,75.89
2023-02-06T04:38:04.908Z,75.71
2023-02-06T04:40:31.493Z,76.12
2023-02-06T04:42:58.207Z,76.51
2023-02-06T04:45:24.952Z,76.41
2023-02-06T04:47:51.570Z,76.73
2023-02-06T04:50:20.830Z,77.03
2023-02-06T04:52:47.407Z,76.92
2023-02-06T04:55:13.760Z,76.95
2023-02-06T04:57:40.818Z,77.18
2023-02-06T05:00:11.445Z,77.27
2023-02-06T05:02:39.095Z,77.40
2023-02-06T05:05:06.576Z,78.01
2023-02-06T05:07:32.920Z,77.32
2023-02-06T05:09:59.808Z,77.65
2023-02-06T05:12:26.522Z,77.15
2023-02-06T05:14:55.230Z,77.17
2023-02-06T05:17:21.694Z,77.36
2023-02-06T05:19:48.253Z,77.32
2023-02-06T05:22:14.612Z,77.10
2023-02-06T05:24:43.396Z,76.82
2023-02-06T05:27:12.070Z,76.90
2023-02-06T05:29:39.753Z,76.33
2023-02-06T05:32:07.209Z,76.35
2023-02-06T05:34:34.303Z,76.43
2023-02-06T05:37:00.777Z,76.14
2023-02-06T05:39:27.365Z,76.28
2023-02-06T05:41:54.262Z,76.24
2023-02-06T05:44:20.687Z,76.18
2023-02-06T05:46:47.086Z,76.34
2023-02-06T05:49:17.092Z,76.39
2023-02-06T05:51:43.498Z,75.39
2023-02-06T05:54:12.734Z,76.37
2023-02-06T05:56:39.747Z,76.67
2023-02-06T05:59:08.472Z,77.68
2023-02-06T06:01:35.310Z,77.74
2023-02-06T06:04:01.817Z,77.37
2023-02-06T06:06:28.472Z,77.65
2023-02-06T06:08:57.996Z,78.13
2023-02-06T06:11:24.419Z,77.96
2023-02-06T06:13:51.172Z,77.83
2023-02-06T06:16:17.682Z,77.43
2023-02-06T06:18:47.357Z,77.56
2023-02-06T06:21:13.733Z,77.30
2023-02-06T06:23:40.094Z,77.37
2023-02-06T06:26:06.908Z,77.46
2023-02-06T06:28:35.574Z,77.42
2023-02-06T06:31:03.030Z,77.42
2023-02-06T06:33:29.778Z,77.13
2023-02-06T06:35:58.432Z,76.93
2023-02-06T06:38:24.976Z,76.83
2023-02-06T06:40:51.399Z,76.71
2023-02-06T06:43:17.808Z,76.38
2023-02-06T06:45:44.237Z,76.20
2023-02-06T06:48:10.658Z,75.88
2023-02-06T06:50:37.054Z,76.12
2023-02-06T06:53:03.743Z,76.43
2023-02-06T06:55:30.558Z,76.02
2023-02-06T06:57:57.484Z,75.99
2023-02-06T07:00:24.301Z,75.65
2023-02-06T07:02:50.769Z,75.45
2023-02-06T07:05:17.224Z,76.25
2023-02-06T07:07:43.626Z,77.27
2023-02-06T07:10:12.390Z,75.55
2023-02-06T08:32:55.608Z,76.07
2023-02-06T08:35:22.114Z,75.72
2023-02-06T08:37:50.933Z,75.49
2023-02-06T08:40:17.313Z,74.94
2023-02-06T08:42:43.696Z,74.84
2023-02-06T08:45:10.093Z,74.88
2023-02-06T08:47:36.587Z,75.26
2023-02-06T08:50:03.723Z,74.91
2023-02-06T08:52:30.305Z,74.63
2023-02-06T08:54:57.018Z,74.33
2023-02-06T08:57:23.382Z,74.01
2023-02-06T08:59:49.790Z,74.20
2023-02-06T09:02:16.436Z,74.07
2023-02-06T09:04:42.905Z,74.91
2023-02-06T09:07:09.448Z,75.47
2023-02-06T09:09:35.843Z,75.04
2023-02-06T09:12:02.227Z,76.00
2023-02-06T09:14:28.910Z,75.48
2023-02-06T09:16:55.289Z,75.57
2023-02-06T09:19:21.702Z,75.08
2023-02-06T09:21:48.040Z,74.92
2023-02-06T09:24:14.553Z,73.99
2023-02-06T09:26:57.318Z,73.61
2023-02-06T09:29:25.274Z,73.51
2023-02-06T09:31:51.868Z,73.04
2023-02-06T09:34:18.199Z,72.39
2023-02-06T09:36:44.833Z,72.06
2023-02-06T09:39:11.297Z,71.69
2023-02-06T09:41:37.712Z,71.25
2023-02-06T09:44:04.114Z,70.88
2023-02-06T09:46:33.062Z,70.79
2023-02-06T09:48:59.655Z,71.85
2023-02-06T09:51:26.213Z,71.78
2023-02-06T09:53:52.648Z,71.34
2023-02-06T09:56:19.355Z,73.70
2023-02-06T09:58:45.711Z,73.45
2023-02-06T10:01:12.129Z,72.74
2023-02-06T10:03:38.485Z,71.81
2023-02-06T10:06:05.889Z,72.31
2023-02-06T10:08:34.475Z,72.50
2023-02-06T10:11:01.039Z,74.08
2023-02-06T10:13:27.551Z,74.11
2023-02-06T10:15:55.954Z,73.76
2023-02-06T10:18:22.498Z,73.20
2023-02-06T10:20:49.008Z,72.77
2023-02-06T10:23:16.295Z,73.18
2023-02-06T10:25:42.739Z,73.62
2023-02-06T10:28:09.221Z,73.20
2023-02-06T10:30:35.649Z,72.91
2023-02-06T10:33:04.368Z,73.44
2023-02-06T10:35:36.809Z,72.08
2023-02-06T10:38:03.382Z,71.34
2023-02-06T10:40:33.903Z,71.38
2023-02-06T10:43:00.303Z,71.19
2023-02-06T10:45:26.693Z,71.73
2023-02-06T10:47:53.139Z,71.87
2023-02-06T10:50:19.650Z,71.58
2023-02-06T10:52:47.149Z,71.60
2023-02-06T10:55:14.689Z,72.21
2023-02-06T10:57:44.002Z,73.14
2023-02-06T11:00:10.398Z,73.10
2023-02-06T11:02:36.734Z,72.82
2023-02-06T11:05:03.605Z,72.19
2023-02-06T11:07:31.655Z,72.17
2023-02-06T11:09:58.119Z,71.29
2023-02-06T11:12:25.134Z,70.05
2023-02-06T11:14:51.502Z,70.53
2023-02-06T11:17:18.873Z,70.82
2023-02-06T11:19:46.081Z,70.94
2023-02-06T11:22:13.027Z,70.56
2023-02-06T11:24:41.784Z,70.69
2023-02-06T11:27:08.186Z,69.92
2023-02-06T11:29:36.876Z,70.07
2023-02-06T11:32:03.637Z,69.80
2023-02-06T11:34:30.170Z,68.96
2023-02-06T11:36:57.234Z,68.90
2023-02-06T11:39:23.928Z,69.15
2023-02-06T11:41:52.576Z,70.04
2023-02-06T11:44:19.021Z,70.51
2023-02-06T11:46:45.521Z,70.85
2023-02-06T11:49:16.218Z,71.27
2023-02-06T11:51:42.568Z,71.56
2023-02-06T11:54:08.982Z,70.51
2023-02-06T11:56:35.688Z,69.87
2023-02-06T11:59:02.699Z,70.10
2023-02-06T12:01:29.224Z,70.24
2023-02-06T12:03:56.291Z,69.91
2023-02-06T12:06:22.783Z,70.23
2023-02-06T12:08:50.839Z,70.25
2023-02-06T12:11:17.543Z,69.09
2023-02-06T12:13:43.939Z,70.12
2023-02-06T12:16:11.462Z,70.34
2023-02-06T12:18:38.122Z,69.13
2023-02-06T12:21:04.558Z,68.69
2023-02-06T12:23:33.042Z,68.67
2023-02-06T12:25:59.491Z,68.86
2023-02-06T12:28:26.938Z,67.54
2023-02-06T12:30:53.416Z,67.60
2023-02-06T12:33:21.393Z,68.09
2023-02-06T12:35:48.105Z,68.10
2023-02-06T12:38:14.578Z,68.20
2023-02-06T12:40:41.054Z,68.93
2023-02-06T12:43:09.623Z,68.77
2023-02-06T12:45:36.248Z,68.55
2023-02-06T12:48:02.850Z,70.03
2023-02-06T12:50:36.655Z,70.06
2023-02-06T12:53:04.011Z,70.33
2023-02-06T12:55:31.643Z,70.82
2023-02-06T12:58:06.161Z,70.85
2023-02-06T13:00:33.667Z,69.96
2023-02-06T13:03:00.819Z,69.76
2023-02-06T13:05:27.257Z,70.15
2023-02-06T13:07:56.130Z,69.32
2023-02-06T13:10:23.090Z,68.96
2023-02-06T13:12:49.469Z,69.37
2023-02-06T13:15:15.955Z,69.29
2023-02-06T13:17:44.678Z,69.78
2023-02-06T13:20:11.060Z,70.11
2023-02-06T13:22:39.527Z,69.58
2023-02-06T13:25:06.938Z,69.15
2023-02-06T13:27:33.511Z,68.92
2023-02-06T13:29:59.862Z,68.14
2023-02-06T13:32:27.243Z,68.67
2023-02-06T13:34:53.912Z,68.48
2023-02-06T13:37:20.386Z,69.14
2023-02-06T13:39:47.883Z,68.97
2023-02-06T13:42:14.350Z,68.19
2023-02-06T13:44:42.422Z,67.23
2023-02-06T13:47:12.085Z,67.44
2023-02-06T13:49:38.661Z,66.62
2023-02-06T13:52:05.068Z,66.92
2023-02-06T13:54:34.363Z,67.89
2023-02-06T13:57:02.222Z,68.35
2023-02-06T13:59:28.602Z,67.47
2023-02-06T14:01:55.045Z,66.69
2023-02-06T14:04:25.070Z,66.71
2023-02-06T14:06:55.157Z,67.28
2023-02-06T14:09:21.598Z,68.50
2023-02-06T14:11:48.063Z,68.34
2023-02-06T14:14:15.854Z,67.62
2023-02-06T14:16:42.371Z,67.10
2023-02-06T14:19:09.745Z,66.59
2023-02-06T14:21:36.097Z,66.85
2023-02-06T14:24:03.355Z,66.27
2023-02-06T14:26:29.945Z,65.82
2023-02-06T14:28:58.592Z,64.61
2023-02-06T14:31:25.087Z,65.86
2023-02-06T14:33:51.617Z,65.42
2023-02-06T14:36:18.432Z,64.72
2023-02-06T14:38:45.871Z,64.76
2023-02-06T14:41:12.325Z,65.84
2023-02-06T14:43:43.592Z,64.69
2023-02-06T14:46:10.412Z,66.09
2023-02-06T14:48:37.358Z,66.13
2023-02-06T14:51:07.955Z,66.10
2023-02-06T14:53:47.154Z,65.80
2023-02-06T14:56:15.358Z,65.51
2023-02-06T14:58:42.136Z,66.67
2023-02-06T15:01:08.963Z,66.26
2023-02-06T15:03:36.020Z,66.53
2023-02-06T15:06:02.555Z,66.53
2023-02-06T15:08:28.953Z,66.44
2023-02-06T15:10:55.834Z,66.31
2023-02-06T15:13:23.407Z,66.77
2023-02-06T15:15:49.788Z,66.18
2023-02-06T15:18:16.611Z,66.07
2023-02-06T15:20:42.995Z,65.79
2023-02-06T15:23:17.784Z,65.57
2023-02-06T15:25:44.982Z,65.63
2023-02-06T15:28:11.760Z,65.69
2023-02-06T15:30:38.615Z,66.73
2023-02-06T15:33:07.448Z,66.69
2023-02-06T15:35:34.242Z,66.06
2023-02-06T15:38:00.640Z,65.90
2023-02-06T15:40:27.009Z,66.13
2023-02-06T15:42:53.497Z,66.53
2023-02-06T15:45:19.889Z,66.57
2023-02-06T15:47:46.381Z,66.99
2023-02-06T15:50:12.743Z,67.17
2023-02-06T15:52:39.078Z,67.03
2023-02-06T15:55:05.535Z,65.99
2023-02-06T15:57:31.932Z,65.35
2023-02-06T15:59:58.297Z,64.25
2023-02-06T16:02:25.004Z,64.20
2023-02-06T16:04:51.846Z,65.19
2023-02-06T16:07:19.077Z,65.46
2023-02-06T16:09:45.542Z,65.28
2023-02-06T16:12:12.762Z,65.22
2023-02-06T16:14:39.181Z,65.06
2023-02-06T16:17:05.568Z,65.79
2023-02-06T16:19:31.957Z,65.55
2023-02-06T16:21:58.444Z,65.91
2023-02-06T16:24:24.969Z,66.52
2023-02-06T16:26:51.456Z,66.43
2023-02-06T16:29:17.978Z,66.13
2023-02-06T16:31:44.718Z,66.74
2023-02-06T16:34:11.343Z,66.71
2023-02-06T16:36:37.897Z,65.90
2023-02-06T16:39:04.943Z,64.77
2023-02-06T16:41:31.364Z,63.95
2023-02-06T16:43:57.876Z,65.05
2023-02-06T16:46:24.241Z,64.70
2023-02-06T16:48:50.609Z,64.20
2023-02-06T16:51:16.996Z,64.36
2023-02-06T16:53:45.348Z,64.92
2023-02-06T16:56:12.624Z,64.98
2023-02-06T16:58:39.065Z,65.38
2023-02-06T18:49:30.586Z,62.85
2023-02-06T18:51:57.282Z,63.22
2023-02-06T18:54:25.937Z,62.82
2023-02-06T18:56:52.868Z,63.17
2023-02-06T18:59:22.357Z,63.68
2023-02-06T19:01:49.748Z,63.40
2023-02-06T19:04:16.201Z,63.40
2023-02-06T19:06:42.798Z,63.22
2023-02-06T19:09:09.643Z,63.05
2023-02-06T19:11:36.580Z,63.40
2023-02-06T19:14:02.950Z,63.38
2023-02-06T19:16:32.240Z,63.10
2023-02-06T19:18:59.001Z,62.29
2023-02-06T19:21:25.389Z,61.78
